Terminal Aerodrome Forecast
Issued by NWS

Current Version | Previous Version | Graphics & Text | Print | Product List | Glossary On
Versions: 1 2 3 4 5 6 7 8 9 10 11 12 13 14 15 16 17
000
FTUS41 KPBZ 302003 AAA
TAFMGW
TAF AMD
KMGW 302003Z 3020/0118 22010KT P6SM VCSH BKN040
      TEMPO 3022/3024 3SM TSRA BKN020CB
     FM010200 23005KT P6SM BKN040
     FM011000 25005KT 5SM BR BKN020
     FM011600 27009KT P6SM BKN035=

USA.gov is the U.S. government's official web portal to all federal, state and local government web resources and services.